logo
Search for airport 
image banner adimage banner adimage banner ad
image banner ad

EHDS - D12-B (Oil Platform)

Located in Lemelerveld, Netherlands

ICAO - EHDS, IATA -

Data provided by Airmate  

General information

Coordinates: N54°24'21" E2°49'0"
Elevation is 10 feet MSL.
 
View others Airports in Overijssel

Operational data

Special qualification required
Current time UTC:
Current local time:
Weather at : EHDV - D15-Fa-1 (Oil Platform) ( 12 km )
METAR: EHDV 241125Z AUTO 23005KT 160V290 9999 NCD 16/11 Q1021
View NOTAMs / SUP AIP / TFR affecting this airport [VIEW]
Communications frequencies: [VIEW]

Runways:

Airport contact information

Address: Lemelerveld Netherlands

Satellite view of EHDS